sensor_id;sensor_type;location;lat;lon;timestamp;P1;durP1;ratioP1;P2;durP2;ratioP2
29432;SDS011;16405;53.964;13.448;2023-03-31T00:02:01;17.05;;;3.00;;
29432;SDS011;16405;53.964;13.448;2023-03-31T00:04:39;21.00;;;3.25;;
29432;SDS011;16405;53.964;13.448;2023-03-31T00:07:10;23.75;;;3.80;;
29432;SDS011;16405;53.964;13.448;2023-03-31T00:09:38;25.20;;;3.17;;
29432;SDS011;16405;53.964;13.448;2023-03-31T00:12:06;18.40;;;3.20;;
29432;SDS011;16405;53.964;13.448;2023-03-31T00:14:32;17.20;;;3.17;;
29432;SDS011;16405;53.964;13.448;2023-03-31T00:16:57;22.85;;;3.72;;
29432;SDS011;16405;53.964;13.448;2023-03-31T00:19:26;25.45;;;4.03;;
29432;SDS011;16405;53.964;13.448;2023-03-31T00:21:57;26.52;;;3.70;;
29432;SDS011;16405;53.964;13.448;2023-03-31T00:24:27;26.73;;;4.03;;
29432;SDS011;16405;53.964;13.448;2023-03-31T00:26:59;26.63;;;3.78;;
29432;SDS011;16405;53.964;13.448;2023-03-31T00:29:27;22.05;;;3.88;;
29432;SDS011;16405;53.964;13.448;2023-03-31T00:31:54;21.35;;;3.30;;
29432;SDS011;16405;53.964;13.448;2023-03-31T00:34:26;20.00;;;3.95;;
29432;SDS011;16405;53.964;13.448;2023-03-31T00:36:52;21.75;;;3.97;;
29432;SDS011;16405;53.964;13.448;2023-03-31T00:39:20;24.85;;;4.07;;
29432;SDS011;16405;53.964;13.448;2023-03-31T00:41:52;24.70;;;4.45;;
29432;SDS011;16405;53.964;13.448;2023-03-31T00:46:49;26.67;;;4.65;;
29432;SDS011;16405;53.964;13.448;2023-03-31T00:49:42;28.33;;;4.60;;
29432;SDS011;16405;53.964;13.448;2023-03-31T00:52:19;23.58;;;4.13;;
29432;SDS011;16405;53.964;13.448;2023-03-31T00:54:50;21.25;;;4.38;;
29432;SDS011;16405;53.964;13.448;2023-03-31T00:57:25;24.88;;;4.32;;
29432;SDS011;16405;53.964;13.448;2023-03-31T01:00:04;18.42;;;4.50;;
29432;SDS011;16405;53.964;13.448;2023-03-31T01:02:55;28.10;;;5.07;;
29432;SDS011;16405;53.964;13.448;2023-03-31T01:05:33;25.35;;;4.75;;
29432;SDS011;16405;53.964;13.448;2023-03-31T01:08:19;26.40;;;4.93;;
29432;SDS011;16405;53.964;13.448;2023-03-31T01:10:51;18.25;;;5.15;;
29432;SDS011;16405;53.964;13.448;2023-03-31T01:13:27;25.08;;;5.18;;
29432;SDS011;16405;53.964;13.448;2023-03-31T01:15:55;24.42;;;5.43;;
29432;SDS011;16405;53.964;13.448;2023-03-31T01:18:27;24.17;;;5.68;;
29432;SDS011;16405;53.964;13.448;2023-03-31T01:21:29;25.67;;;5.28;;
29432;SDS011;16405;53.964;13.448;2023-03-31T01:42:19;23.25;;;5.80;;
29432;SDS011;16405;53.964;13.448;2023-03-31T01:47:50;24.75;;;5.68;;
29432;SDS011;16405;53.964;13.448;2023-03-31T01:56:52;24.73;;;6.70;;
29432;SDS011;16405;53.964;13.448;2023-03-31T01:59:15;27.95;;;6.93;;
29432;SDS011;16405;53.964;13.448;2023-03-31T02:02:26;28.40;;;6.72;;
29432;SDS011;16405;53.964;13.448;2023-03-31T02:04:58;25.20;;;7.18;;
29432;SDS011;16405;53.964;13.448;2023-03-31T02:07:32;33.30;;;7.43;;
29432;SDS011;16405;53.964;13.448;2023-03-31T02:10:10;29.70;;;6.70;;
29432;SDS011;16405;53.964;13.448;2023-03-31T02:12:37;31.15;;;6.85;;
29432;SDS011;16405;53.964;13.448;2023-03-31T02:15:07;26.42;;;7.05;;
29432;SDS011;16405;53.964;13.448;2023-03-31T02:17:40;29.45;;;7.72;;
29432;SDS011;16405;53.964;13.448;2023-03-31T02:20:10;31.15;;;7.30;;
29432;SDS011;16405;53.964;13.448;2023-03-31T02:22:44;24.17;;;6.78;;
29432;SDS011;16405;53.964;13.448;2023-03-31T02:25:27;26.05;;;6.88;;
29432;SDS011;16405;53.964;13.448;2023-03-31T02:28:07;25.85;;;6.70;;
29432;SDS011;16405;53.964;13.448;2023-03-31T02:31:02;33.22;;;6.63;;
29432;SDS011;16405;53.964;13.448;2023-03-31T02:33:43;25.23;;;6.47;;
29432;SDS011;16405;53.964;13.448;2023-03-31T02:36:08;25.10;;;6.43;;
29432;SDS011;16405;53.964;13.448;2023-03-31T02:38:57;27.17;;;6.78;;
29432;SDS011;16405;53.964;13.448;2023-03-31T02:41:31;26.35;;;6.50;;
29432;SDS011;16405;53.964;13.448;2023-03-31T02:44:07;25.70;;;6.00;;
29432;SDS011;16405;53.964;13.448;2023-03-31T02:46:42;23.13;;;6.25;;
29432;SDS011;16405;53.964;13.448;2023-03-31T02:49:09;27.23;;;5.70;;
29432;SDS011;16405;53.964;13.448;2023-03-31T03:06:31;19.90;;;5.43;;
29432;SDS011;16405;53.964;13.448;2023-03-31T03:09:42;15.38;;;5.93;;
29432;SDS011;16405;53.964;13.448;2023-03-31T03:18:01;21.60;;;5.20;;
29432;SDS011;16405;53.964;13.448;2023-03-31T03:20:35;17.67;;;5.18;;
29432;SDS011;16405;53.964;13.448;2023-03-31T03:23:03;16.30;;;4.82;;
29432;SDS011;16405;53.964;13.448;2023-03-31T03:25:29;19.83;;;5.15;;
29432;SDS011;16405;53.964;13.448;2023-03-31T03:27:54;17.75;;;5.20;;
29432;SDS011;16405;53.964;13.448;2023-03-31T03:30:29;19.77;;;5.03;;
29432;SDS011;16405;53.964;13.448;2023-03-31T03:32:55;17.52;;;5.18;;
29432;SDS011;16405;53.964;13.448;2023-03-31T03:35:22;19.67;;;5.38;;
29432;SDS011;16405;53.964;13.448;2023-03-31T03:37:56;14.07;;;4.70;;
29432;SDS011;16405;53.964;13.448;2023-03-31T03:40:22;17.67;;;4.75;;
29432;SDS011;16405;53.964;13.448;2023-03-31T03:42:48;15.45;;;4.35;;
29432;SDS011;16405;53.964;13.448;2023-03-31T03:45:14;18.30;;;5.18;;
29432;SDS011;16405;53.964;13.448;2023-03-31T03:47:42;15.27;;;5.40;;
29432;SDS011;16405;53.964;13.448;2023-03-31T03:50:10;15.80;;;5.13;;
29432;SDS011;16405;53.964;13.448;2023-03-31T03:52:37;21.75;;;5.97;;
29432;SDS011;16405;53.964;13.448;2023-03-31T03:55:03;16.60;;;5.22;;
29432;SDS011;16405;53.964;13.448;2023-03-31T03:57:30;18.60;;;5.75;;
29432;SDS011;16405;53.964;13.448;2023-03-31T03:59:55;22.88;;;6.03;;
29432;SDS011;16405;53.964;13.448;2023-03-31T04:02:32;19.80;;;6.13;;
29432;SDS011;16405;53.964;13.448;2023-03-31T04:04:57;24.02;;;6.30;;
29432;SDS011;16405;53.964;13.448;2023-03-31T04:07:23;18.67;;;6.70;;
29432;SDS011;16405;53.964;13.448;2023-03-31T04:09:58;20.38;;;6.68;;
29432;SDS011;16405;53.964;13.448;2023-03-31T04:12:23;24.15;;;6.85;;
29432;SDS011;16405;53.964;13.448;2023-03-31T04:14:49;23.67;;;7.00;;
29432;SDS011;16405;53.964;13.448;2023-03-31T04:17:15;27.13;;;7.88;;
29432;SDS011;16405;53.964;13.448;2023-03-31T04:19:58;31.50;;;9.02;;
29432;SDS011;16405;53.964;13.448;2023-03-31T04:22:30;25.55;;;8.63;;
29432;SDS011;16405;53.964;13.448;2023-03-31T04:25:02;31.13;;;9.43;;
29432;SDS011;16405;53.964;13.448;2023-03-31T04:27:54;33.28;;;9.43;;
29432;SDS011;16405;53.964;13.448;2023-03-31T04:30:31;34.50;;;10.40;;
29432;SDS011;16405;53.964;13.448;2023-03-31T04:33:00;23.80;;;10.52;;
29432;SDS011;16405;53.964;13.448;2023-03-31T04:35:30;37.20;;;11.20;;
29432;SDS011;16405;53.964;13.448;2023-03-31T04:38:06;34.15;;;12.05;;
29432;SDS011;16405;53.964;13.448;2023-03-31T04:40:34;33.45;;;11.35;;
29432;SDS011;16405;53.964;13.448;2023-03-31T04:43:00;34.63;;;12.55;;
29432;SDS011;16405;53.964;13.448;2023-03-31T04:45:26;42.88;;;12.98;;
29432;SDS011;16405;53.964;13.448;2023-03-31T04:47:52;41.30;;;12.43;;
29432;SDS011;16405;53.964;13.448;2023-03-31T04:50:17;37.97;;;12.80;;
29432;SDS011;16405;53.964;13.448;2023-03-31T04:55:13;42.47;;;13.45;;
29432;SDS011;16405;53.964;13.448;2023-03-31T04:57:39;38.67;;;13.00;;
29432;SDS011;16405;53.964;13.448;2023-03-31T05:00:06;35.83;;;12.45;;
29432;SDS011;16405;53.964;13.448;2023-03-31T05:02:33;37.78;;;11.65;;
29432;SDS011;16405;53.964;13.448;2023-03-31T05:05:01;35.58;;;12.95;;
29432;SDS011;16405;53.964;13.448;2023-03-31T05:07:30;38.40;;;12.38;;
29432;SDS011;16405;53.964;13.448;2023-03-31T05:09:56;40.72;;;13.02;;
29432;SDS011;16405;53.964;13.448;2023-03-31T05:12:22;42.03;;;12.70;;
29432;SDS011;16405;53.964;13.448;2023-03-31T05:14:47;42.97;;;12.75;;
29432;SDS011;16405;53.964;13.448;2023-03-31T05:17:13;29.77;;;12.20;;
29432;SDS011;16405;53.964;13.448;2023-03-31T05:19:44;39.35;;;12.75;;
29432;SDS011;16405;53.964;13.448;2023-03-31T05:22:10;37.40;;;13.35;;
29432;SDS011;16405;53.964;13.448;2023-03-31T05:24:35;39.95;;;13.23;;
29432;SDS011;16405;53.964;13.448;2023-03-31T05:27:01;35.90;;;12.80;;
29432;SDS011;16405;53.964;13.448;2023-03-31T05:29:27;49.10;;;14.15;;
29432;SDS011;16405;53.964;13.448;2023-03-31T05:31:53;39.15;;;13.02;;
29432;SDS011;16405;53.964;13.448;2023-03-31T05:34:22;42.13;;;14.75;;
29432;SDS011;16405;53.964;13.448;2023-03-31T05:36:48;39.90;;;12.68;;
29432;SDS011;16405;53.964;13.448;2023-03-31T05:39:17;44.30;;;13.52;;
29432;SDS011;16405;53.964;13.448;2023-03-31T05:41:43;40.72;;;13.63;;
29432;SDS011;16405;53.964;13.448;2023-03-31T05:44:09;45.10;;;14.00;;
29432;SDS011;16405;53.964;13.448;2023-03-31T05:46:38;41.45;;;13.52;;
29432;SDS011;16405;53.964;13.448;2023-03-31T05:49:05;35.90;;;13.20;;
29432;SDS011;16405;53.964;13.448;2023-03-31T05:51:32;41.90;;;12.75;;
29432;SDS011;16405;53.964;13.448;2023-03-31T05:53:58;39.05;;;14.25;;
29432;SDS011;16405;53.964;13.448;2023-03-31T05:56:24;42.15;;;13.57;;
29432;SDS011;16405;53.964;13.448;2023-03-31T05:58:54;39.75;;;12.93;;
29432;SDS011;16405;53.964;13.448;2023-03-31T06:01:22;39.58;;;14.00;;
29432;SDS011;16405;53.964;13.448;2023-03-31T06:03:49;49.88;;;14.02;;
29432;SDS011;16405;53.964;13.448;2023-03-31T06:06:15;42.15;;;13.40;;
29432;SDS011;16405;53.964;13.448;2023-03-31T06:08:41;35.58;;;13.23;;
29432;SDS011;16405;53.964;13.448;2023-03-31T06:11:17;42.80;;;13.57;;
29432;SDS011;16405;53.964;13.448;2023-03-31T06:13:45;35.92;;;14.85;;
29432;SDS011;16405;53.964;13.448;2023-03-31T06:16:15;43.08;;;14.80;;
29432;SDS011;16405;53.964;13.448;2023-03-31T06:18:42;37.95;;;14.90;;
29432;SDS011;16405;53.964;13.448;2023-03-31T06:21:12;37.60;;;13.70;;
29432;SDS011;16405;53.964;13.448;2023-03-31T06:23:41;37.03;;;12.85;;
29432;SDS011;16405;53.964;13.448;2023-03-31T06:26:11;46.13;;;13.48;;
29432;SDS011;16405;53.964;13.448;2023-03-31T06:28:39;38.72;;;14.00;;
29432;SDS011;16405;53.964;13.448;2023-03-31T06:31:07;38.78;;;13.30;;
29432;SDS011;16405;53.964;13.448;2023-03-31T06:33:38;39.95;;;13.30;;
29432;SDS011;16405;53.964;13.448;2023-03-31T06:36:06;40.13;;;14.30;;
29432;SDS011;16405;53.964;13.448;2023-03-31T06:38:34;36.10;;;12.38;;
29432;SDS011;16405;53.964;13.448;2023-03-31T06:41:08;39.25;;;11.98;;
29432;SDS011;16405;53.964;13.448;2023-03-31T06:43:37;32.05;;;10.90;;
29432;SDS011;16405;53.964;13.448;2023-03-31T06:46:06;35.70;;;11.95;;
29432;SDS011;16405;53.964;13.448;2023-03-31T06:48:35;30.77;;;12.07;;
29432;SDS011;16405;53.964;13.448;2023-03-31T06:51:01;36.22;;;11.25;;
29432;SDS011;16405;53.964;13.448;2023-03-31T06:53:30;45.50;;;12.45;;
29432;SDS011;16405;53.964;13.448;2023-03-31T06:56:05;33.28;;;11.20;;
29432;SDS011;16405;53.964;13.448;2023-03-31T06:58:31;41.35;;;12.05;;
29432;SDS011;16405;53.964;13.448;2023-03-31T07:00:58;33.95;;;11.27;;
29432;SDS011;16405;53.964;13.448;2023-03-31T07:03:29;35.47;;;10.88;;
29432;SDS011;16405;53.964;13.448;2023-03-31T07:05:56;34.88;;;11.93;;
29432;SDS011;16405;53.964;13.448;2023-03-31T07:08:22;31.65;;;10.85;;
29432;SDS011;16405;53.964;13.448;2023-03-31T07:10:52;40.28;;;12.50;;
29432;SDS011;16405;53.964;13.448;2023-03-31T07:13:27;35.42;;;10.60;;
29432;SDS011;16405;53.964;13.448;2023-03-31T07:15:54;32.70;;;11.35;;
29432;SDS011;16405;53.964;13.448;2023-03-31T07:18:25;31.85;;;11.13;;
29432;SDS011;16405;53.964;13.448;2023-03-31T07:20:56;33.97;;;11.68;;
29432;SDS011;16405;53.964;13.448;2023-03-31T07:23:23;36.38;;;11.52;;
29432;SDS011;16405;53.964;13.448;2023-03-31T07:25:52;32.00;;;11.55;;
29432;SDS011;16405;53.964;13.448;2023-03-31T07:28:18;30.63;;;12.35;;
29432;SDS011;16405;53.964;13.448;2023-03-31T07:30:44;31.77;;;12.57;;
29432;SDS011;16405;53.964;13.448;2023-03-31T07:33:10;33.00;;;11.80;;
29432;SDS011;16405;53.964;13.448;2023-03-31T07:35:37;34.78;;;11.23;;
29432;SDS011;16405;53.964;13.448;2023-03-31T07:38:14;25.17;;;11.13;;
29432;SDS011;16405;53.964;13.448;2023-03-31T07:40:40;29.20;;;10.80;;
29432;SDS011;16405;53.964;13.448;2023-03-31T07:43:07;34.83;;;11.88;;
29432;SDS011;16405;53.964;13.448;2023-03-31T07:45:33;30.05;;;11.35;;
29432;SDS011;16405;53.964;13.448;2023-03-31T07:48:01;32.03;;;11.73;;
29432;SDS011;16405;53.964;13.448;2023-03-31T07:50:30;32.67;;;12.65;;
29432;SDS011;16405;53.964;13.448;2023-03-31T07:52:56;34.53;;;11.55;;
29432;SDS011;16405;53.964;13.448;2023-03-31T07:55:22;35.80;;;12.38;;
29432;SDS011;16405;53.964;13.448;2023-03-31T07:57:50;36.85;;;11.65;;
29432;SDS011;16405;53.964;13.448;2023-03-31T08:00:24;30.13;;;11.27;;
29432;SDS011;16405;53.964;13.448;2023-03-31T08:02:51;31.35;;;11.80;;
29432;SDS011;16405;53.964;13.448;2023-03-31T08:05:17;31.13;;;12.32;;
29432;SDS011;16405;53.964;13.448;2023-03-31T08:07:50;33.15;;;11.45;;
29432;SDS011;16405;53.964;13.448;2023-03-31T08:10:18;26.42;;;10.65;;
29432;SDS011;16405;53.964;13.448;2023-03-31T08:12:57;32.15;;;11.25;;
29432;SDS011;16405;53.964;13.448;2023-03-31T08:15:23;25.25;;;10.98;;
29432;SDS011;16405;53.964;13.448;2023-03-31T08:17:48;26.02;;;10.48;;
29432;SDS011;16405;53.964;13.448;2023-03-31T08:20:14;26.98;;;11.07;;
29432;SDS011;16405;53.964;13.448;2023-03-31T08:22:46;31.65;;;10.20;;
29432;SDS011;16405;53.964;13.448;2023-03-31T08:25:11;31.75;;;10.70;;
29432;SDS011;16405;53.964;13.448;2023-03-31T08:27:38;30.88;;;10.50;;
29432;SDS011;16405;53.964;13.448;2023-03-31T08:30:05;27.45;;;10.68;;
29432;SDS011;16405;53.964;13.448;2023-03-31T08:32:34;32.28;;;10.70;;
29432;SDS011;16405;53.964;13.448;2023-03-31T08:35:03;27.10;;;9.75;;
29432;SDS011;16405;53.964;13.448;2023-03-31T08:37:29;28.40;;;11.27;;
29432;SDS011;16405;53.964;13.448;2023-03-31T08:39:56;29.00;;;11.23;;
29432;SDS011;16405;53.964;13.448;2023-03-31T08:42:25;26.73;;;10.52;;
29432;SDS011;16405;53.964;13.448;2023-03-31T08:45:31;31.60;;;10.40;;
29432;SDS011;16405;53.964;13.448;2023-03-31T08:50:53;28.08;;;11.05;;
29432;SDS011;16405;53.964;13.448;2023-03-31T08:53:33;25.80;;;10.25;;
29432;SDS011;16405;53.964;13.448;2023-03-31T08:56:06;28.80;;;10.68;;
29432;SDS011;16405;53.964;13.448;2023-03-31T08:58:47;33.85;;;10.50;;
29432;SDS011;16405;53.964;13.448;2023-03-31T09:01:37;30.08;;;10.93;;
29432;SDS011;16405;53.964;13.448;2023-03-31T09:07:52;25.95;;;10.23;;
29432;SDS011;16405;53.964;13.448;2023-03-31T09:10:52;29.65;;;9.80;;
29432;SDS011;16405;53.964;13.448;2023-03-31T09:23:23;22.20;;;8.88;;
29432;SDS011;16405;53.964;13.448;2023-03-31T09:25:35;24.02;;;8.18;;
29432;SDS011;16405;53.964;13.448;2023-03-31T09:28:28;23.63;;;7.85;;
29432;SDS011;16405;53.964;13.448;2023-03-31T09:31:21;20.15;;;7.70;;
29432;SDS011;16405;53.964;13.448;2023-03-31T09:33:49;24.42;;;7.80;;
29432;SDS011;16405;53.964;13.448;2023-03-31T09:36:40;31.02;;;7.50;;
29432;SDS011;16405;53.964;13.448;2023-03-31T09:39:11;19.90;;;7.38;;
29432;SDS011;16405;53.964;13.448;2023-03-31T09:41:47;22.65;;;7.50;;
29432;SDS011;16405;53.964;13.448;2023-03-31T09:44:43;21.80;;;7.90;;
29432;SDS011;16405;53.964;13.448;2023-03-31T09:47:26;25.17;;;6.80;;
29432;SDS011;16405;53.964;13.448;2023-03-31T09:50:07;25.17;;;7.97;;
29432;SDS011;16405;53.964;13.448;2023-03-31T09:52:55;23.88;;;7.13;;
29432;SDS011;16405;53.964;13.448;2023-03-31T09:55:42;21.83;;;7.25;;
29432;SDS011;16405;53.964;13.448;2023-03-31T09:58:18;18.52;;;6.85;;
29432;SDS011;16405;53.964;13.448;2023-03-31T10:03:51;19.48;;;6.72;;
29432;SDS011;16405;53.964;13.448;2023-03-31T10:06:19;16.00;;;6.45;;
29432;SDS011;16405;53.964;13.448;2023-03-31T10:09:02;20.42;;;6.32;;
29432;SDS011;16405;53.964;13.448;2023-03-31T10:11:38;18.73;;;6.55;;
29432;SDS011;16405;53.964;13.448;2023-03-31T10:14:39;20.80;;;6.15;;
29432;SDS011;16405;53.964;13.448;2023-03-31T10:17:28;18.08;;;6.20;;
29432;SDS011;16405;53.964;13.448;2023-03-31T10:19:57;23.80;;;6.90;;
29432;SDS011;16405;53.964;13.448;2023-03-31T10:22:33;22.25;;;6.25;;
29432;SDS011;16405;53.964;13.448;2023-03-31T10:25:15;17.33;;;6.47;;
29432;SDS011;16405;53.964;13.448;2023-03-31T10:27:52;22.70;;;5.88;;
29432;SDS011;16405;53.964;13.448;2023-03-31T10:30:32;18.83;;;6.13;;
29432;SDS011;16405;53.964;13.448;2023-03-31T10:33:45;18.60;;;5.90;;
29432;SDS011;16405;53.964;13.448;2023-03-31T10:38:54;19.23;;;5.20;;
29432;SDS011;16405;53.964;13.448;2023-03-31T10:44:30;17.15;;;5.00;;
29432;SDS011;16405;53.964;13.448;2023-03-31T10:47:19;20.35;;;4.80;;
29432;SDS011;16405;53.964;13.448;2023-03-31T10:49:49;17.58;;;4.75;;
29432;SDS011;16405;53.964;13.448;2023-03-31T10:52:28;14.18;;;4.47;;
29432;SDS011;16405;53.964;13.448;2023-03-31T10:55:29;16.00;;;4.60;;
29432;SDS011;16405;53.964;13.448;2023-03-31T11:16:15;14.30;;;3.70;;
29432;SDS011;16405;53.964;13.448;2023-03-31T11:36:46;19.40;;;4.32;;
29432;SDS011;16405;53.964;13.448;2023-03-31T11:39:42;16.65;;;4.00;;
29432;SDS011;16405;53.964;13.448;2023-03-31T11:45:51;16.33;;;4.18;;
29432;SDS011;16405;53.964;13.448;2023-03-31T11:48:57;28.95;;;4.47;;
29432;SDS011;16405;53.964;13.448;2023-03-31T11:51:58;21.52;;;3.92;;
29432;SDS011;16405;53.964;13.448;2023-03-31T11:58:03;13.77;;;3.35;;
29432;SDS011;16405;53.964;13.448;2023-03-31T12:03:21;14.88;;;3.28;;
29432;SDS011;16405;53.964;13.448;2023-03-31T12:06:01;19.80;;;3.65;;
29432;SDS011;16405;53.964;13.448;2023-03-31T12:09:01;17.08;;;2.90;;
29432;SDS011;16405;53.964;13.448;2023-03-31T12:15:07;14.27;;;2.42;;
29432;SDS011;16405;53.964;13.448;2023-03-31T12:18:07;16.88;;;3.15;;
29432;SDS011;16405;53.964;13.448;2023-03-31T12:20:57;10.25;;;2.60;;
29432;SDS011;16405;53.964;13.448;2023-03-31T12:30:34;12.38;;;2.80;;
29432;SDS011;16405;53.964;13.448;2023-03-31T12:33:19;17.73;;;2.75;;
29432;SDS011;16405;53.964;13.448;2023-03-31T12:52:58;14.45;;;2.80;;
29432;SDS011;16405;53.964;13.448;2023-03-31T12:55:57;11.27;;;2.05;;
29432;SDS011;16405;53.964;13.448;2023-03-31T13:04:44;14.45;;;2.67;;
29432;SDS011;16405;53.964;13.448;2023-03-31T13:15:54;8.50;;;2.50;;
29432;SDS011;16405;53.964;13.448;2023-03-31T13:18:35;14.52;;;2.70;;
29432;SDS011;16405;53.964;13.448;2023-03-31T13:21:15;10.07;;;2.38;;
29432;SDS011;16405;53.964;13.448;2023-03-31T13:23:58;11.27;;;2.10;;
29432;SDS011;16405;53.964;13.448;2023-03-31T14:04:15;10.23;;;2.58;;
29432;SDS011;16405;53.964;13.448;2023-03-31T14:07:28;13.20;;;2.03;;
29432;SDS011;16405;53.964;13.448;2023-03-31T14:13:07;12.93;;;2.58;;
29432;SDS011;16405;53.964;13.448;2023-03-31T14:18:34;11.30;;;2.35;;
29432;SDS011;16405;53.964;13.448;2023-03-31T14:21:13;13.85;;;2.47;;
29432;SDS011;16405;53.964;13.448;2023-03-31T14:29:34;12.60;;;2.35;;
29432;SDS011;16405;53.964;13.448;2023-03-31T14:38:02;13.45;;;2.25;;
29432;SDS011;16405;53.964;13.448;2023-03-31T14:40:47;12.82;;;2.08;;
29432;SDS011;16405;53.964;13.448;2023-03-31T14:43:35;11.50;;;1.75;;
29432;SDS011;16405;53.964;13.448;2023-03-31T14:46:19;13.10;;;2.25;;
29432;SDS011;16405;53.964;13.448;2023-03-31T14:48:46;15.80;;;2.53;;
29432;SDS011;16405;53.964;13.448;2023-03-31T14:51:27;11.65;;;2.42;;
29432;SDS011;16405;53.964;13.448;2023-03-31T14:54:00;15.85;;;2.40;;
29432;SDS011;16405;53.964;13.448;2023-03-31T14:59:04;11.63;;;1.90;;
29432;SDS011;16405;53.964;13.448;2023-03-31T15:01:33;12.05;;;2.42;;
29432;SDS011;16405;53.964;13.448;2023-03-31T15:04:10;12.60;;;2.83;;
29432;SDS011;16405;53.964;13.448;2023-03-31T15:06:48;6.93;;;1.67;;
29432;SDS011;16405;53.964;13.448;2023-03-31T15:14:55;10.35;;;1.70;;
29432;SDS011;16405;53.964;13.448;2023-03-31T15:17:31;7.82;;;1.30;;
29432;SDS011;16405;53.964;13.448;2023-03-31T15:23:01;7.40;;;1.10;;
29432;SDS011;16405;53.964;13.448;2023-03-31T15:25:45;9.40;;;2.33;;
29432;SDS011;16405;53.964;13.448;2023-03-31T15:28:11;10.07;;;1.63;;
29432;SDS011;16405;53.964;13.448;2023-03-31T15:30:48;8.57;;;1.52;;
29432;SDS011;16405;53.964;13.448;2023-03-31T15:33:22;9.98;;;1.63;;
29432;SDS011;16405;53.964;13.448;2023-03-31T15:35:57;8.43;;;1.88;;
29432;SDS011;16405;53.964;13.448;2023-03-31T15:38:23;12.10;;;2.08;;
29432;SDS011;16405;53.964;13.448;2023-03-31T15:40:56;11.63;;;2.00;;
29432;SDS011;16405;53.964;13.448;2023-03-31T15:45:59;11.20;;;2.30;;
29432;SDS011;16405;53.964;13.448;2023-03-31T15:53:36;11.27;;;2.53;;
29432;SDS011;16405;53.964;13.448;2023-03-31T15:56:09;13.38;;;2.83;;
29432;SDS011;16405;53.964;13.448;2023-03-31T16:01:48;14.77;;;2.70;;
29432;SDS011;16405;53.964;13.448;2023-03-31T16:04:15;11.52;;;2.38;;
29432;SDS011;16405;53.964;13.448;2023-03-31T16:07:04;14.50;;;4.97;;
29432;SDS011;16405;53.964;13.448;2023-03-31T16:09:45;8.80;;;2.20;;
29432;SDS011;16405;53.964;13.448;2023-03-31T16:12:31;20.25;;;3.15;;
29432;SDS011;16405;53.964;13.448;2023-03-31T16:15:41;10.55;;;2.53;;
29432;SDS011;16405;53.964;13.448;2023-03-31T16:18:22;8.07;;;1.92;;
29432;SDS011;16405;53.964;13.448;2023-03-31T16:21:19;11.15;;;1.75;;
29432;SDS011;16405;53.964;13.448;2023-03-31T16:23:56;8.77;;;1.55;;
29432;SDS011;16405;53.964;13.448;2023-03-31T16:26:26;12.50;;;1.95;;
29432;SDS011;16405;53.964;13.448;2023-03-31T16:28:56;10.82;;;2.65;;
29432;SDS011;16405;53.964;13.448;2023-03-31T16:34:02;9.32;;;1.80;;
29432;SDS011;16405;53.964;13.448;2023-03-31T16:36:40;6.28;;;1.38;;
29432;SDS011;16405;53.964;13.448;2023-03-31T16:39:09;8.70;;;2.17;;
29432;SDS011;16405;53.964;13.448;2023-03-31T16:41:35;5.57;;;1.52;;
29432;SDS011;16405;53.964;13.448;2023-03-31T16:44:10;6.50;;;1.52;;
29432;SDS011;16405;53.964;13.448;2023-03-31T16:46:36;8.18;;;2.22;;
29432;SDS011;16405;53.964;13.448;2023-03-31T16:49:09;5.22;;;1.35;;
29432;SDS011;16405;53.964;13.448;2023-03-31T16:51:38;6.60;;;1.40;;
29432;SDS011;16405;53.964;13.448;2023-03-31T16:54:08;9.30;;;3.08;;
29432;SDS011;16405;53.964;13.448;2023-03-31T16:56:44;19.33;;;8.38;;
29432;SDS011;16405;53.964;13.448;2023-03-31T16:59:20;7.72;;;2.03;;
29432;SDS011;16405;53.964;13.448;2023-03-31T17:01:48;16.37;;;11.17;;
29432;SDS011;16405;53.964;13.448;2023-03-31T17:04:14;12.40;;;7.18;;
29432;SDS011;16405;53.964;13.448;2023-03-31T17:06:49;12.73;;;5.32;;
29432;SDS011;16405;53.964;13.448;2023-03-31T17:09:16;44.67;;;30.55;;
29432;SDS011;16405;53.964;13.448;2023-03-31T17:11:52;14.73;;;7.10;;
29432;SDS011;16405;53.964;13.448;2023-03-31T17:14:19;8.10;;;3.65;;
29432;SDS011;16405;53.964;13.448;2023-03-31T17:16:45;9.23;;;3.13;;
29432;SDS011;16405;53.964;13.448;2023-03-31T17:19:11;5.93;;;1.67;;
29432;SDS011;16405;53.964;13.448;2023-03-31T17:21:42;11.02;;;1.73;;
29432;SDS011;16405;53.964;13.448;2023-03-31T17:24:08;13.00;;;2.13;;
29432;SDS011;16405;53.964;13.448;2023-03-31T17:26:34;10.32;;;1.75;;
29432;SDS011;16405;53.964;13.448;2023-03-31T17:29:01;13.07;;;2.53;;
29432;SDS011;16405;53.964;13.448;2023-03-31T17:31:36;14.43;;;3.10;;
29432;SDS011;16405;53.964;13.448;2023-03-31T17:34:02;17.17;;;3.22;;
29432;SDS011;16405;53.964;13.448;2023-03-31T17:36:28;12.38;;;4.10;;
29432;SDS011;16405;53.964;13.448;2023-03-31T17:38:54;17.95;;;4.07;;
29432;SDS011;16405;53.964;13.448;2023-03-31T17:41:22;19.65;;;3.60;;
29432;SDS011;16405;53.964;13.448;2023-03-31T17:43:53;16.10;;;3.72;;
29432;SDS011;16405;53.964;13.448;2023-03-31T17:46:19;18.02;;;3.92;;
29432;SDS011;16405;53.964;13.448;2023-03-31T17:48:54;19.73;;;4.38;;
29432;SDS011;16405;53.964;13.448;2023-03-31T17:51:22;14.05;;;3.65;;
29432;SDS011;16405;53.964;13.448;2023-03-31T17:53:49;19.30;;;5.10;;
29432;SDS011;16405;53.964;13.448;2023-03-31T17:56:15;17.98;;;4.95;;
29432;SDS011;16405;53.964;13.448;2023-03-31T17:58:46;15.75;;;4.75;;
29432;SDS011;16405;53.964;13.448;2023-03-31T18:01:12;20.75;;;5.18;;
29432;SDS011;16405;53.964;13.448;2023-03-31T18:03:38;18.92;;;5.32;;
29432;SDS011;16405;53.964;13.448;2023-03-31T18:06:14;13.38;;;4.15;;
29432;SDS011;16405;53.964;13.448;2023-03-31T18:08:41;21.33;;;4.88;;
29432;SDS011;16405;53.964;13.448;2023-03-31T18:11:09;14.23;;;4.18;;
29432;SDS011;16405;53.964;13.448;2023-03-31T18:13:37;16.83;;;3.90;;
29432;SDS011;16405;53.964;13.448;2023-03-31T18:16:06;15.45;;;4.38;;
29432;SDS011;16405;53.964;13.448;2023-03-31T18:18:35;16.35;;;4.82;;
29432;SDS011;16405;53.964;13.448;2023-03-31T18:21:02;18.05;;;4.85;;
29432;SDS011;16405;53.964;13.448;2023-03-31T18:23:36;19.02;;;5.22;;
29432;SDS011;16405;53.964;13.448;2023-03-31T18:26:07;15.60;;;4.47;;
29432;SDS011;16405;53.964;13.448;2023-03-31T18:28:43;16.70;;;5.10;;
29432;SDS011;16405;53.964;13.448;2023-03-31T18:31:09;17.90;;;5.57;;
29432;SDS011;16405;53.964;13.448;2023-03-31T18:33:36;22.02;;;5.25;;
29432;SDS011;16405;53.964;13.448;2023-03-31T18:36:06;19.52;;;4.85;;
29432;SDS011;16405;53.964;13.448;2023-03-31T18:38:39;14.18;;;4.78;;
29432;SDS011;16405;53.964;13.448;2023-03-31T18:41:12;16.00;;;5.18;;
29432;SDS011;16405;53.964;13.448;2023-03-31T18:43:38;19.83;;;5.68;;
29432;SDS011;16405;53.964;13.448;2023-03-31T18:46:04;16.63;;;5.80;;
29432;SDS011;16405;53.964;13.448;2023-03-31T18:48:31;26.13;;;6.03;;
29432;SDS011;16405;53.964;13.448;2023-03-31T18:51:06;25.60;;;7.32;;
29432;SDS011;16405;53.964;13.448;2023-03-31T18:53:33;18.77;;;5.70;;
29432;SDS011;16405;53.964;13.448;2023-03-31T18:55:59;30.13;;;8.73;;
29432;SDS011;16405;53.964;13.448;2023-03-31T18:58:31;36.80;;;8.05;;
29432;SDS011;16405;53.964;13.448;2023-03-31T19:00:57;24.45;;;8.02;;